Time;durP1;ratioP1;P1;durP2;ratioP2;P2;SDS_P1;SDS_P2;PMS_P1;PMS_P2;Temp;Humidity;BMP_temperature;BMP_pressure;BME280_temperature;BME280_humidity;BME280_pressure;Samples;Min_cycle;Max_cycle;Signal;HPM_P1;HPM_P2
2023/08/17 00:01:25;;;;;;;12.07;10.97;;;20.00;99.90;;;;;;4980693;28;20211;-67
2023/08/17 00:03:50;;;;;;;13.63;12.40;;;20.00;99.90;;;;;;4990298;28;20307;-67
2023/08/17 00:06:16;;;;;;;12.93;11.63;;;19.90;99.90;;;;;;4988765;28;20254;-67
2023/08/17 00:08:42;;;;;;;13.03;11.80;;;19.90;99.90;;;;;;4983980;28;20187;-67
2023/08/17 00:11:08;;;;;;;16.07;13.17;;;19.90;99.90;;;;;;4981427;28;20227;-67
2023/08/17 00:13:34;;;;;;;13.57;11.77;;;19.90;99.90;;;;;;4979472;28;20471;-68
2023/08/17 00:16:00;;;;;;;12.37;11.20;;;19.80;99.90;;;;;;4990408;28;20552;-67
2023/08/17 00:18:25;;;;;;;13.33;11.90;;;19.90;99.90;;;;;;4989237;28;20172;-67
2023/08/17 00:20:51;;;;;;;13.60;12.10;;;20.00;99.90;;;;;;4990089;28;20230;-67
2023/08/17 00:23:17;;;;;;;13.00;11.67;;;20.00;99.90;;;;;;4985571;28;20176;-67
2023/08/17 00:25:43;;;;;;;14.13;12.90;;;20.00;99.90;;;;;;4982208;28;20860;-67
2023/08/17 00:28:08;;;;;;;16.87;13.93;;;20.00;99.90;;;;;;4989258;28;20188;-67
2023/08/17 00:30:36;;;;;;;14.00;12.80;;;20.00;99.90;;;;;;4987445;28;20206;-67
2023/08/17 00:33:02;;;;;;;12.60;11.60;;;20.00;99.90;;;;;;4976171;28;20277;-67
2023/08/17 00:35:28;;;;;;;13.70;12.27;;;20.00;99.90;;;;;;4989414;28;20498;-67
2023/08/17 00:37:53;;;;;;;13.77;12.43;;;20.00;99.90;;;;;;4986964;28;20469;-67
2023/08/17 00:40:19;;;;;;;12.70;11.40;;;20.00;99.90;;;;;;4989725;28;20494;-67
2023/08/17 00:42:44;;;;;;;12.97;11.80;;;19.90;99.90;;;;;;4989387;28;20234;-67
2023/08/17 00:45:10;;;;;;;14.80;13.40;;;19.90;99.90;;;;;;4989840;28;20176;-67
2023/08/17 00:47:36;;;;;;;12.33;11.07;;;19.90;99.90;;;;;;4991998;28;20182;-67
2023/08/17 00:50:02;;;;;;;13.80;12.60;;;19.90;99.90;;;;;;4989631;28;20294;-67
2023/08/17 00:52:28;;;;;;;13.13;11.93;;;19.90;99.90;;;;;;4993477;28;20227;-67
2023/08/17 00:54:55;;;;;;;13.17;11.90;;;19.90;99.90;;;;;;4993830;28;20799;-67
2023/08/17 00:57:21;;;;;;;12.67;11.47;;;19.90;99.90;;;;;;4991170;28;20434;-67
2023/08/17 00:59:47;;;;;;;13.93;12.73;;;19.90;99.90;;;;;;4987408;28;20477;-67
2023/08/17 01:02:12;;;;;;;15.33;13.50;;;19.90;99.90;;;;;;4992765;28;20191;-67
2023/08/17 01:04:38;;;;;;;13.03;11.70;;;19.90;99.90;;;;;;4989368;28;20262;-67
2023/08/17 01:07:03;;;;;;;14.40;13.00;;;19.80;99.90;;;;;;4990841;28;20234;-67
2023/08/17 01:09:30;;;;;;;18.80;14.77;;;19.80;99.90;;;;;;4990496;28;20301;-67
2023/08/17 01:12:20;;;;;;;14.90;13.50;;;19.80;99.90;;;;;;4991550;28;20211;-67
2023/08/17 01:15:03;;;;;;;13.90;12.57;;;19.70;99.90;;;;;;4985587;28;20431;-67
2023/08/17 01:17:54;;;;;;;13.47;12.27;;;19.70;99.90;;;;;;4988331;28;20446;-67
2023/08/17 01:20:20;;;;;;;13.07;11.83;;;19.80;99.90;;;;;;4992406;28;20481;-68
2023/08/17 01:22:50;;;;;;;13.53;12.33;;;19.90;99.90;;;;;;4991884;28;21010;-67
2023/08/17 01:25:15;;;;;;;13.90;12.70;;;19.90;99.90;;;;;;4981505;28;21116;-67
2023/08/17 01:27:43;;;;;;;13.87;12.60;;;19.90;99.90;;;;;;4986270;28;20551;-67
2023/08/17 01:30:11;;;;;;;13.13;11.93;;;19.90;99.90;;;;;;4986093;28;20204;-67
2023/08/17 01:32:46;;;;;;;13.03;11.67;;;20.00;99.90;;;;;;4976831;28;20451;-68
2023/08/17 01:35:38;;;;;;;14.23;10.77;;;20.10;99.90;;;;;;4976110;28;20434;-67
2023/08/17 01:38:09;;;;;;;14.13;12.83;;;20.20;99.90;;;;;;4985392;28;20446;-68
2023/08/17 01:40:35;;;;;;;13.00;11.67;;;20.10;99.90;;;;;;4992376;28;21172;-68
2023/08/17 01:43:04;;;;;;;13.50;11.87;;;20.10;99.90;;;;;;4991847;28;20443;-68
2023/08/17 01:45:30;;;;;;;12.97;11.57;;;20.20;99.90;;;;;;4991944;28;20509;-68
2023/08/17 01:47:56;;;;;;;13.27;12.07;;;20.20;99.90;;;;;;4990319;28;20442;-68
2023/08/17 01:50:21;;;;;;;16.43;12.50;;;20.20;99.90;;;;;;4991727;28;20195;-68
2023/08/17 01:52:47;;;;;;;13.63;12.20;;;20.20;99.90;;;;;;4992512;28;20192;-68
2023/08/17 01:55:12;;;;;;;14.10;12.30;;;20.30;99.90;;;;;;4990889;28;20230;-68
2023/08/17 01:57:38;;;;;;;13.97;12.47;;;20.30;99.90;;;;;;4990035;28;20218;-67
2023/08/17 02:00:10;;;;;;;14.17;12.77;;;20.30;99.90;;;;;;4988895;28;20215;-68
2023/08/17 02:02:36;;;;;;;14.30;12.33;;;20.30;99.90;;;;;;4983536;28;20175;-67
2023/08/17 02:05:01;;;;;;;14.67;13.23;;;20.30;99.90;;;;;;4988950;28;20445;-68
2023/08/17 02:07:26;;;;;;;12.33;11.33;;;20.30;99.90;;;;;;4991415;28;20215;-67
2023/08/17 02:09:52;;;;;;;13.43;12.23;;;20.40;99.90;;;;;;4985229;28;20179;-68
2023/08/17 02:12:17;;;;;;;13.33;12.07;;;20.40;99.90;;;;;;4985533;28;20654;-67
2023/08/17 02:14:43;;;;;;;13.77;12.57;;;20.50;99.90;;;;;;4985517;28;20183;-68
2023/08/17 02:17:09;;;;;;;12.47;11.17;;;20.50;99.90;;;;;;4987870;28;20184;-67
2023/08/17 02:19:34;;;;;;;12.93;10.83;;;20.50;99.90;;;;;;4989445;28;20584;-67
2023/08/17 02:22:02;;;;;;;13.87;12.67;;;20.60;99.90;;;;;;4989524;28;20334;-67
2023/08/17 02:24:27;;;;;;;12.53;11.40;;;20.50;99.90;;;;;;4983677;28;20183;-67
2023/08/17 02:26:53;;;;;;;13.70;12.40;;;20.50;99.90;;;;;;4988447;28;20808;-68
2023/08/17 02:29:18;;;;;;;15.60;14.03;;;20.50;99.90;;;;;;4990209;28;20180;-67
2023/08/17 02:31:44;;;;;;;16.10;14.47;;;20.50;99.90;;;;;;4987759;28;20203;-68
2023/08/17 02:34:10;;;;;;;17.60;15.67;;;20.60;99.90;;;;;;4990341;28;20274;-67
2023/08/17 02:36:35;;;;;;;19.87;17.87;;;20.60;99.90;;;;;;4979475;28;20184;-68
2023/08/17 02:39:03;;;;;;;22.13;19.97;;;20.60;99.90;;;;;;4988822;28;20234;-68
2023/08/17 02:41:30;;;;;;;21.37;18.90;;;20.70;99.90;;;;;;4991504;28;20202;-67
2023/08/17 02:43:55;;;;;;;22.07;19.00;;;20.70;99.90;;;;;;4990632;28;21059;-67
2023/08/17 02:46:21;;;;;;;19.47;17.40;;;20.70;99.90;;;;;;4987501;28;20461;-67
2023/08/17 02:48:47;;;;;;;16.00;14.63;;;20.70;99.90;;;;;;4984945;28;20179;-68
2023/08/17 02:51:13;;;;;;;18.90;15.97;;;20.70;99.90;;;;;;4967381;28;20219;-67
2023/08/17 02:53:39;;;;;;;19.90;17.60;;;20.80;99.90;;;;;;4983847;28;20465;-67
2023/08/17 02:56:04;;;;;;;20.07;17.90;;;20.80;99.90;;;;;;4986190;28;20183;-67
2023/08/17 02:58:30;;;;;;;18.60;16.70;;;20.80;99.90;;;;;;4985983;28;20184;-67
2023/08/17 03:00:55;;;;;;;18.90;17.10;;;20.80;99.90;;;;;;4988631;28;20254;-67
2023/08/17 03:03:21;;;;;;;17.80;16.20;;;20.80;99.90;;;;;;4986039;28;20183;-67
2023/08/17 03:05:47;;;;;;;15.07;13.77;;;20.80;99.90;;;;;;4983610;28;20188;-67
2023/08/17 03:08:12;;;;;;;12.70;11.60;;;20.80;99.90;;;;;;4984904;28;20188;-67
2023/08/17 03:10:38;;;;;;;12.10;11.03;;;20.80;99.90;;;;;;4987561;28;20775;-67
2023/08/17 03:13:03;;;;;;;12.97;11.60;;;20.80;99.90;;;;;;4988155;28;20211;-67
2023/08/17 03:15:29;;;;;;;13.37;12.07;;;20.80;99.90;;;;;;4987589;28;20555;-67
2023/08/17 03:17:55;;;;;;;14.43;13.03;;;20.80;99.90;;;;;;4983257;28;20786;-68
2023/08/17 03:20:20;;;;;;;19.10;13.83;;;20.80;99.90;;;;;;4986943;28;20226;-67
2023/08/17 03:22:46;;;;;;;15.57;13.73;;;20.80;99.90;;;;;;4986053;28;20577;-67
2023/08/17 03:25:11;;;;;;;14.30;12.90;;;20.80;99.90;;;;;;4984119;28;20545;-67
2023/08/17 03:27:37;;;;;;;13.03;12.00;;;20.80;99.90;;;;;;4988233;28;20195;-67
2023/08/17 03:30:04;;;;;;;13.33;12.13;;;20.80;99.90;;;;;;4990007;28;20207;-67
2023/08/17 03:32:29;;;;;;;14.43;13.03;;;20.80;99.90;;;;;;4988655;28;20182;-67
2023/08/17 03:34:55;;;;;;;14.83;13.30;;;20.80;99.90;;;;;;4989764;28;21262;-67
2023/08/17 03:37:20;;;;;;;20.30;16.10;;;20.80;99.90;;;;;;4980423;28;20199;-68
2023/08/17 03:39:45;;;;;;;21.40;19.30;;;20.80;99.90;;;;;;4987754;28;20222;-67
2023/08/17 03:42:11;;;;;;;23.10;17.63;;;20.80;99.90;;;;;;4990601;28;20301;-67
2023/08/17 03:44:36;;;;;;;19.77;17.93;;;20.80;99.90;;;;;;4989976;28;20187;-67
2023/08/17 03:47:02;;;;;;;22.53;19.67;;;20.70;99.90;;;;;;4981174;28;20183;-68
2023/08/17 03:49:28;;;;;;;18.17;16.30;;;20.70;99.90;;;;;;4986524;28;21854;-67
2023/08/17 03:51:53;;;;;;;17.37;15.70;;;20.70;99.90;;;;;;4987853;28;20290;-68
2023/08/17 03:54:19;;;;;;;21.47;19.37;;;20.70;99.90;;;;;;4984741;28;20450;-68
2023/08/17 03:56:44;;;;;;;19.00;17.03;;;20.70;99.90;;;;;;4986218;28;20183;-68
2023/08/17 03:59:10;;;;;;;20.60;18.50;;;20.70;99.90;;;;;;4979109;28;20204;-68
2023/08/17 04:01:35;;;;;;;18.57;16.67;;;20.70;99.90;;;;;;4980171;28;20211;-68
2023/08/17 04:04:02;;;;;;;18.90;16.90;;;20.70;99.90;;;;;;4984188;28;20186;-69
2023/08/17 04:06:27;;;;;;;18.60;16.73;;;20.70;99.90;;;;;;4989767;28;20192;-68
2023/08/17 04:08:53;;;;;;;19.03;17.10;;;20.80;99.90;;;;;;4985208;28;20446;-67
2023/08/17 04:11:18;;;;;;;18.80;17.10;;;20.80;99.90;;;;;;4989848;28;20215;-68
2023/08/17 04:13:44;;;;;;;19.20;17.40;;;20.70;99.90;;;;;;4989656;28;20546;-68
2023/08/17 04:16:09;;;;;;;21.60;19.60;;;20.80;99.90;;;;;;4981821;28;20172;-68
2023/08/17 04:18:35;;;;;;;19.70;17.70;;;20.80;99.90;;;;;;4978270;28;20274;-68
2023/08/17 04:21:00;;;;;;;19.83;17.93;;;20.70;99.90;;;;;;4989820;28;20294;-68
2023/08/17 04:23:26;;;;;;;22.37;19.83;;;20.70;99.90;;;;;;4994413;28;20202;-68
2023/08/17 04:25:53;;;;;;;24.67;22.07;;;20.80;99.90;;;;;;4991246;28;20844;-68
2023/08/17 04:28:19;;;;;;;24.17;21.73;;;20.70;99.90;;;;;;4991972;28;20175;-68
2023/08/17 04:30:44;;;;;;;23.60;21.10;;;20.60;99.90;;;;;;4990895;28;21006;-68
2023/08/17 04:33:10;;;;;;;25.83;21.57;;;20.60;99.90;;;;;;4988479;28;20593;-67
2023/08/17 04:35:36;;;;;;;27.50;24.37;;;20.70;99.90;;;;;;4987636;28;20187;-68
2023/08/17 04:38:01;;;;;;;23.40;21.20;;;20.70;99.90;;;;;;4991223;28;20270;-68
2023/08/17 04:40:27;;;;;;;27.27;23.50;;;20.70;99.90;;;;;;4991083;28;20716;-68
2023/08/17 04:42:53;;;;;;;25.33;22.70;;;20.60;99.90;;;;;;4991956;28;20242;-68
2023/08/17 04:45:19;;;;;;;25.97;21.77;;;20.60;99.90;;;;;;4990547;28;20194;-68
2023/08/17 04:47:44;;;;;;;29.73;25.27;;;20.60;99.90;;;;;;4988811;28;20438;-67
2023/08/17 04:50:12;;;;;;;27.50;23.33;;;20.50;99.90;;;;;;4984864;28;20215;-68
2023/08/17 04:52:38;;;;;;;32.50;23.83;;;20.60;99.90;;;;;;4985790;28;20180;-68
2023/08/17 04:55:03;;;;;;;23.00;20.53;;;20.60;99.90;;;;;;4987785;28;20449;-68
2023/08/17 04:57:29;;;;;;;24.70;22.10;;;20.80;99.90;;;;;;4991752;28;20680;-68
2023/08/17 04:59:54;;;;;;;24.63;22.07;;;20.90;99.90;;;;;;4990758;28;20206;-68
2023/08/17 05:02:20;;;;;;;25.10;22.60;;;20.80;99.90;;;;;;4983908;28;20670;-68
2023/08/17 05:04:46;;;;;;;27.27;23.77;;;20.70;99.90;;;;;;4984873;28;20176;-68
2023/08/17 05:07:12;;;;;;;24.13;21.63;;;20.80;99.90;;;;;;4992638;28;20176;-68
2023/08/17 05:09:37;;;;;;;25.73;22.60;;;20.90;99.90;;;;;;4989788;28;20533;-68
2023/08/17 05:12:03;;;;;;;25.17;22.57;;;21.00;99.90;;;;;;5008351;22;20238;-70
2023/08/17 05:14:29;;;;;;;25.40;22.20;;;20.90;99.90;;;;;;4983930;28;20179;-68
2023/08/17 05:16:54;;;;;;;22.73;20.40;;;20.80;99.90;;;;;;4983732;28;20203;-69
2023/08/17 05:19:19;;;;;;;22.67;20.27;;;20.80;99.90;;;;;;4986329;28;20211;-67
2023/08/17 05:21:45;;;;;;;23.10;19.57;;;21.00;99.90;;;;;;4979587;28;20239;-69
2023/08/17 05:24:11;;;;;;;20.73;18.83;;;21.10;99.90;;;;;;4982405;28;20688;-69
2023/08/17 05:26:36;;;;;;;22.67;20.20;;;21.00;99.90;;;;;;4966857;28;20188;-68
2023/08/17 05:29:02;;;;;;;20.97;18.67;;;21.10;99.90;;;;;;4972812;28;21203;-69
2023/08/17 05:31:27;;;;;;;21.10;18.90;;;21.20;99.90;;;;;;4988727;28;20204;-69
2023/08/17 05:33:53;;;;;;;22.60;20.43;;;21.30;99.90;;;;;;4991060;28;20187;-67
2023/08/17 05:36:18;;;;;;;22.83;19.70;;;21.30;99.90;;;;;;4990901;28;20187;-69
2023/08/17 05:38:44;;;;;;;22.53;20.17;;;21.30;99.90;;;;;;4992006;28;20548;-69
2023/08/17 05:41:09;;;;;;;22.83;20.53;;;21.30;99.90;;;;;;4990989;28;20660;-68
2023/08/17 05:43:35;;;;;;;23.63;21.33;;;21.30;99.90;;;;;;4989948;28;20180;-69
2023/08/17 05:46:01;;;;;;;21.87;19.77;;;21.30;99.90;;;;;;4984980;28;20183;-67
2023/08/17 05:48:26;;;;;;;25.20;22.63;;;21.50;99.90;;;;;;4989594;28;20229;-69
2023/08/17 05:50:52;;;;;;;20.43;18.53;;;21.60;99.90;;;;;;4990954;28;20212;-69
2023/08/17 05:53:17;;;;;;;24.40;18.10;;;21.70;99.90;;;;;;4986971;28;20263;-69
2023/08/17 05:55:43;;;;;;;21.27;18.70;;;21.80;99.90;;;;;;4988913;28;20184;-68
2023/08/17 05:58:08;;;;;;;21.17;19.00;;;21.80;99.90;;;;;;4990097;28;20180;-67
2023/08/17 06:00:35;;;;;;;22.30;20.30;;;21.90;99.90;;;;;;4987199;28;20225;-69
2023/08/17 06:03:03;;;;;;;18.60;16.90;;;21.90;99.90;;;;;;4991767;28;20192;-69
2023/08/17 06:05:29;;;;;;;19.07;17.20;;;22.10;99.90;;;;;;4988951;28;20441;-70
2023/08/17 06:07:55;;;;;;;21.93;17.93;;;22.10;99.90;;;;;;4985574;28;20438;-69
2023/08/17 06:10:24;;;;;;;20.53;18.60;;;22.00;99.90;;;;;;4985563;28;20571;-70
2023/08/17 06:12:51;;;;;;;26.60;23.80;;;21.80;99.90;;;;;;4984951;28;20458;-70
2023/08/17 06:15:17;;;;;;;23.07;20.40;;;21.60;99.90;;;;;;4985147;28;20434;-68
2023/08/17 06:17:43;;;;;;;25.73;23.20;;;21.50;99.90;;;;;;4991541;28;20504;-68
2023/08/17 06:20:09;;;;;;;27.80;23.57;;;21.50;99.90;;;;;;4983915;28;20215;-69
2023/08/17 06:22:35;;;;;;;25.17;22.57;;;21.40;99.90;;;;;;4978215;28;20661;-68
2023/08/17 06:25:01;;;;;;;24.13;21.87;;;21.60;99.90;;;;;;4991794;28;20418;-69
2023/08/17 06:27:26;;;;;;;25.80;21.83;;;21.80;99.90;;;;;;4981097;28;20199;-69
2023/08/17 06:29:52;;;;;;;26.70;21.57;;;22.00;99.90;;;;;;4985395;28;20187;-69
2023/08/17 06:32:17;;;;;;;24.30;21.20;;;22.10;99.90;;;;;;4983602;28;20200;-69
2023/08/17 06:34:43;;;;;;;21.80;19.67;;;22.20;99.90;;;;;;4992703;28;20318;-67
2023/08/17 06:37:08;;;;;;;22.27;20.10;;;22.30;99.90;;;;;;4993243;28;20186;-67
2023/08/17 06:39:34;;;;;;;20.53;18.40;;;22.50;99.90;;;;;;4977433;28;20219;-68
2023/08/17 06:41:59;;;;;;;21.57;19.33;;;22.60;99.90;;;;;;4982545;28;20214;-67
2023/08/17 06:44:25;;;;;;;23.30;18.40;;;22.90;99.90;;;;;;4984885;28;20183;-67
2023/08/17 06:46:50;;;;;;;19.53;17.53;;;23.30;99.90;;;;;;4984235;28;20192;-67
2023/08/17 06:49:16;;;;;;;21.43;19.33;;;23.60;99.90;;;;;;4981306;28;20210;-67
2023/08/17 06:51:41;;;;;;;17.63;16.13;;;23.80;99.90;;;;;;4982740;28;20216;-67
2023/08/17 06:54:10;;;;;;;18.00;16.10;;;23.90;99.90;;;;;;4976239;28;20223;-66
2023/08/17 06:56:35;;;;;;;18.13;16.50;;;23.90;99.90;;;;;;4977844;28;20218;-67
2023/08/17 06:59:02;;;;;;;17.77;16.07;;;23.80;99.90;;;;;;4987447;28;20474;-67
2023/08/17 07:01:28;;;;;;;16.40;14.90;;;23.80;99.90;;;;;;4984895;28;20199;-67
2023/08/17 07:03:53;;;;;;;16.93;15.37;;;23.80;99.90;;;;;;4991400;28;21042;-67
2023/08/17 07:06:19;;;;;;;17.73;15.97;;;23.90;99.90;;;;;;4982440;28;20198;-67
2023/08/17 07:08:44;;;;;;;17.30;15.60;;;23.70;99.90;;;;;;4989581;28;20187;-67
2023/08/17 07:11:11;;;;;;;16.37;14.70;;;23.50;99.90;;;;;;4986637;28;20237;-67
2023/08/17 07:13:36;;;;;;;18.27;16.50;;;23.80;99.90;;;;;;4979732;28;20443;-67
2023/08/17 07:16:02;;;;;;;17.63;15.73;;;23.90;99.90;;;;;;4981371;28;20190;-67
2023/08/17 07:18:27;;;;;;;17.93;16.00;;;24.10;99.90;;;;;;4983107;28;20188;-67
2023/08/17 07:20:53;;;;;;;16.07;14.37;;;24.50;99.90;;;;;;4981745;28;20212;-67
2023/08/17 07:23:18;;;;;;;16.47;15.07;;;24.70;99.90;;;;;;4980284;28;20664;-67
2023/08/17 07:25:44;;;;;;;16.47;14.97;;;25.00;99.90;;;;;;4983019;28;20188;-66
2023/08/17 07:28:09;;;;;;;17.00;14.70;;;25.20;99.90;;;;;;4982138;28;20214;-67
2023/08/17 07:30:35;;;;;;;15.63;13.70;;;25.40;99.90;;;;;;4985816;28;20203;-67
2023/08/17 07:33:01;;;;;;;17.37;15.77;;;25.70;99.90;;;;;;4989598;28;20176;-67
2023/08/17 07:35:26;;;;;;;16.37;14.80;;;25.80;99.90;;;;;;4985938;28;20665;-67
2023/08/17 07:37:52;;;;;;;18.20;16.43;;;25.70;99.90;;;;;;4989004;28;20179;-67
2023/08/17 07:40:17;;;;;;;16.37;14.90;;;25.40;99.90;;;;;;4967744;28;20199;-67
2023/08/17 07:42:43;;;;;;;16.40;14.80;;;25.10;99.90;;;;;;4988844;28;20227;-68
2023/08/17 07:45:09;;;;;;;16.50;15.10;;;25.40;99.90;;;;;;4981247;28;20235;-67
2023/08/17 07:47:38;;;;;;;15.80;14.30;;;25.70;99.90;;;;;;4983623;28;20194;-67
2023/08/17 07:50:04;;;;;;;14.03;12.73;;;25.70;99.90;;;;;;4985704;28;20194;-67
2023/08/17 07:52:30;;;;;;;16.33;14.83;;;25.80;99.90;;;;;;4988067;28;21225;-67
2023/08/17 07:54:55;;;;;;;17.73;15.07;;;25.90;99.90;;;;;;4982244;28;20449;-67
2023/08/17 07:57:21;;;;;;;17.70;15.80;;;25.60;99.90;;;;;;4990993;28;20183;-67
2023/08/17 07:59:46;;;;;;;18.30;16.73;;;25.60;99.90;;;;;;4991982;28;20234;-67
2023/08/17 08:02:12;;;;;;;15.83;14.30;;;25.40;99.90;;;;;;4986273;28;20338;-68
2023/08/17 08:04:38;;;;;;;15.70;14.10;;;25.50;99.90;;;;;;4991454;28;20187;-68
2023/08/17 08:07:03;;;;;;;16.53;14.83;;;26.10;99.90;;;;;;4986690;28;20241;-68
2023/08/17 08:09:29;;;;;;;15.50;14.10;;;26.60;99.90;;;;;;4991214;28;20179;-68
2023/08/17 08:11:54;;;;;;;15.80;14.20;;;27.10;99.90;;;;;;4986917;28;20254;-67
2023/08/17 08:14:20;;;;;;;15.77;14.37;;;27.50;99.90;;;;;;4985269;28;20282;-67
2023/08/17 08:16:46;;;;;;;13.10;11.90;;;27.20;99.90;;;;;;4987827;28;20675;-67
2023/08/17 08:19:12;;;;;;;13.67;12.47;;;27.30;99.90;;;;;;4982739;28;20295;-67
2023/08/17 08:21:37;;;;;;;13.83;12.53;;;27.50;99.90;;;;;;4984677;28;20541;-68
2023/08/17 08:24:03;;;;;;;15.20;13.90;;;27.70;99.90;;;;;;4983386;28;20265;-67
2023/08/17 08:26:29;;;;;;;14.30;12.97;;;27.40;99.90;;;;;;4986392;28;20234;-68
2023/08/17 08:28:54;;;;;;;12.57;11.50;;;27.50;99.90;;;;;;4986759;28;20210;-68
2023/08/17 08:31:20;;;;;;;12.00;10.90;;;28.00;99.90;;;;;;4987951;28;20241;-68
2023/08/17 08:33:45;;;;;;;11.60;10.50;;;28.40;99.90;;;;;;4991673;28;20175;-68
2023/08/17 08:36:11;;;;;;;12.77;11.77;;;28.50;99.90;;;;;;4990589;28;20184;-68
2023/08/17 08:38:37;;;;;;;10.27;9.47;;;28.70;99.90;;;;;;4987660;28;20259;-68
2023/08/17 08:41:03;;;;;;;12.80;11.73;;;29.30;99.90;;;;;;4986890;28;20199;-68
2023/08/17 08:43:28;;;;;;;10.37;9.53;;;28.90;99.90;;;;;;4990450;28;20565;-68
2023/08/17 08:45:55;;;;;;;12.80;11.70;;;29.00;99.90;;;;;;4989794;28;20175;-68
2023/08/17 08:48:22;;;;;;;13.70;10.80;;;29.30;99.90;;;;;;4982154;28;20176;-68
2023/08/17 08:50:50;;;;;;;11.60;10.50;;;28.90;99.90;;;;;;4989241;28;20461;-68
2023/08/17 08:53:20;;;;;;;11.43;9.93;;;28.60;99.90;;;;;;4990237;28;20443;-68
2023/08/17 08:56:00;;;;;;;11.10;8.73;;;28.40;99.90;;;;;;4991584;28;20462;-68
2023/08/17 08:58:27;;;;;;;7.43;6.80;;;29.30;99.90;;;;;;4982633;28;21088;-67
2023/08/17 09:00:53;;;;;;;7.63;6.97;;;29.70;99.90;;;;;;4986113;28;20851;-68
2023/08/17 09:03:20;;;;;;;8.23;7.43;;;30.10;99.90;;;;;;4990035;28;20533;-67
2023/08/17 09:05:50;;;;;;;7.47;6.87;;;29.90;99.90;;;;;;4988316;28;20923;-67
2023/08/17 09:08:20;;;;;;;8.83;8.03;;;29.60;99.90;;;;;;4985115;28;20948;-68
2023/08/17 09:10:46;;;;;;;8.70;7.90;;;29.50;99.90;;;;;;4987523;28;20500;-68
2023/08/17 09:13:12;;;;;;;8.20;7.50;;;29.60;99.90;;;;;;4985780;28;20795;-68
2023/08/17 09:15:38;;;;;;;8.83;7.70;;;30.00;99.90;;;;;;4989322;28;20545;-68
2023/08/17 09:18:07;;;;;;;9.93;8.20;;;30.10;99.90;;;;;;4990909;28;20191;-68
2023/08/17 09:20:40;;;;;;;12.23;8.57;;;30.30;99.90;;;;;;4988418;28;20290;-68
2023/08/17 09:23:13;;;;;;;9.23;8.33;;;30.80;99.90;;;;;;4992436;28;20479;-68
2023/08/17 09:25:40;;;;;;;8.10;7.50;;;31.50;99.90;;;;;;4988165;28;21929;-68
2023/08/17 09:28:10;;;;;;;7.60;6.90;;;31.00;99.90;;;;;;4989585;28;20454;-68
2023/08/17 09:30:51;;;;;;;6.70;6.30;;;31.00;99.90;;;;;;4983653;28;22692;-68
2023/08/17 09:33:17;;;;;;;8.03;7.43;;;32.10;99.90;;;;;;4983798;28;20520;-69
2023/08/17 09:35:42;;;;;;;7.80;7.10;;;32.70;99.90;;;;;;4982701;28;21933;-68
2023/08/17 09:38:08;;;;;;;9.60;7.67;;;33.20;99.90;;;;;;4986676;28;20207;-69
2023/08/17 09:40:34;;;;;;;7.40;6.90;;;33.70;99.90;;;;;;4984458;28;20224;-68
2023/08/17 09:42:59;;;;;;;7.50;6.80;;;34.90;99.90;;;;;;4985399;28;20188;-68
2023/08/17 09:45:27;;;;;;;7.27;6.77;;;35.40;99.90;;;;;;4988277;28;20609;-68
2023/08/17 09:47:53;;;;;;;7.53;6.07;;;34.90;99.90;;;;;;4988811;28;20199;-68
2023/08/17 09:50:22;;;;;;;6.47;6.07;;;34.40;99.90;;;;;;4988358;28;20453;-68
2023/08/17 09:52:52;;;;;;;7.57;6.87;;;34.30;99.90;;;;;;4984314;28;20688;-68
2023/08/17 09:55:18;;;;;;;6.90;6.40;;;34.60;99.90;;;;;;4981296;28;20439;-66
2023/08/17 09:57:44;;;;;;;6.87;6.27;;;35.00;99.90;;;;;;4989207;28;20561;-65
2023/08/17 10:00:11;;;;;;;7.23;6.53;;;35.50;99.30;;;;;;4988630;28;20916;-65
2023/08/17 10:02:36;;;;;;;8.00;7.50;;;36.10;97.90;;;;;;4988249;28;20461;-64
2023/08/17 10:05:04;;;;;;;8.17;6.60;;;36.40;96.40;;;;;;4984677;28;20446;-64
2023/08/17 10:07:31;;;;;;;7.10;6.60;;;36.70;94.30;;;;;;4987223;28;20878;-64
2023/08/17 10:10:02;;;;;;;8.03;7.47;;;36.60;94.20;;;;;;4987137;28;20470;-64
2023/08/17 10:12:30;;;;;;;7.10;6.60;;;36.70;93.50;;;;;;4986459;28;20935;-65
2023/08/17 10:15:01;;;;;;;7.53;7.03;;;36.00;92.80;;;;;;4990993;28;20526;-64
2023/08/17 10:17:34;;;;;;;6.90;6.50;;;35.10;93.70;;;;;;4983269;28;20453;-67
2023/08/17 10:20:01;;;;;;;7.47;6.70;;;34.90;94.20;;;;;;4985913;28;20977;-67
2023/08/17 10:22:51;;;;;;;8.60;7.07;;;34.40;94.60;;;;;;4987920;28;20599;-67
2023/08/17 10:25:18;;;;;;;7.80;7.20;;;33.30;96.00;;;;;;4988489;28;20506;-68
2023/08/17 10:27:45;;;;;;;6.43;6.00;;;34.30;93.80;;;;;;4979643;28;20498;-66
2023/08/17 10:30:11;;;;;;;8.57;7.63;;;36.10;92.20;;;;;;4980648;28;20450;-66
2023/08/17 10:32:38;;;;;;;7.87;7.00;;;36.60;90.90;;;;;;4973117;28;20459;-66
2023/08/17 10:35:04;;;;;;;8.23;7.70;;;37.70;87.60;;;;;;4973727;28;21008;-66
2023/08/17 10:37:31;;;;;;;8.27;7.70;;;38.10;83.90;;;;;;4973747;28;20948;-65
2023/08/17 10:39:57;;;;;;;8.57;7.70;;;37.00;85.50;;;;;;4977746;28;20469;-66
2023/08/17 10:42:33;;;;;;;7.70;7.20;;;36.60;84.70;;;;;;4981261;28;20610;-65
2023/08/17 10:45:01;;;;;;;7.33;6.93;;;37.70;84.10;;;;;;4972783;28;20434;-65
2023/08/17 10:47:35;;;;;;;8.13;7.37;;;39.50;80.60;;;;;;4973713;28;20423;-65
2023/08/17 10:50:23;;;;;;;7.70;7.00;;;40.50;76.80;;;;;;4978861;28;20454;-66
2023/08/17 10:52:50;;;;;;;8.20;7.50;;;41.10;74.40;;;;;;4978451;28;20435;-66
2023/08/17 10:55:16;;;;;;;8.00;7.20;;;42.10;70.70;;;;;;4981539;28;20955;-65
2023/08/17 10:57:43;;;;;;;7.30;6.90;;;41.30;68.90;;;;;;4977686;28;20428;-66
2023/08/17 11:00:26;;;;;;;7.20;6.73;;;38.90;70.80;;;;;;4976826;28;21669;-66
2023/08/17 11:02:58;;;;;;;6.57;6.17;;;38.50;73.50;;;;;;4984399;28;20455;-66
2023/08/17 11:05:44;;;;;;;7.37;6.97;;;39.10;73.10;;;;;;4973521;28;20434;-65
2023/08/17 11:08:13;;;;;;;7.77;7.37;;;40.10;69.00;;;;;;4972799;28;20917;-65
2023/08/17 11:10:39;;;;;;;8.80;8.30;;;38.00;69.70;;;;;;4991457;23;20462;-70
2023/08/17 11:13:07;;;;;;;8.37;7.53;;;37.30;71.20;;;;;;4988993;28;20526;-71
2023/08/17 11:15:45;;;;;;;8.30;7.57;;;38.00;70.00;;;;;;4989063;28;20440;-71
2023/08/17 11:18:12;;;;;;;7.20;6.80;;;38.30;68.20;;;;;;4988711;28;20497;-71
2023/08/17 11:20:40;;;;;;;6.93;6.47;;;39.70;67.80;;;;;;4988640;28;20872;-71
2023/08/17 11:23:07;;;;;;;7.93;7.33;;;40.90;66.40;;;;;;5011424;28;20446;-71
2023/08/17 11:25:34;;;;;;;8.00;7.30;;;41.00;64.30;;;;;;4991003;28;20429;-71
2023/08/17 11:28:00;;;;;;;7.20;6.60;;;41.70;64.40;;;;;;5002247;28;20542;-71
2023/08/17 11:30:27;;;;;;;10.43;6.87;;;41.60;63.40;;;;;;4988890;28;20489;-71
2023/08/17 11:32:54;;;;;;;7.43;6.90;;;41.50;62.80;;;;;;5010145;28;20848;-70
2023/08/17 11:35:20;;;;;;;6.37;5.97;;;41.00;62.30;;;;;;4991417;28;20423;-70
2023/08/17 11:37:48;;;;;;;8.00;7.50;;;40.90;62.30;;;;;;5002684;28;20422;-69
2023/08/17 11:40:14;;;;;;;8.20;7.60;;;40.90;62.40;;;;;;4997100;28;21015;-70
2023/08/17 11:42:39;;;;;;;7.43;6.97;;;41.90;61.80;;;;;;4987390;28;20506;-70
2023/08/17 11:45:09;;;;;;;6.40;6.00;;;42.00;60.90;;;;;;5002504;28;20186;-70
2023/08/17 11:47:43;;;;;;;7.73;7.27;;;41.50;60.40;;;;;;4995504;28;20274;-71
2023/08/17 11:50:10;;;;;;;7.57;6.87;;;39.90;62.50;;;;;;4999101;28;20441;-71
2023/08/17 11:52:36;;;;;;;7.63;7.03;;;38.80;64.00;;;;;;5000846;28;20458;-71
2023/08/17 11:55:06;;;;;;;7.57;6.97;;;37.40;66.20;;;;;;5001446;28;20465;-71
2023/08/17 11:57:32;;;;;;;7.73;7.07;;;36.80;67.80;;;;;;4999883;28;20916;-72
2023/08/17 11:59:59;;;;;;;7.70;7.20;;;36.30;70.20;;;;;;5005573;28;20469;-70
2023/08/17 12:02:26;;;;;;;8.10;7.60;;;35.60;73.20;;;;;;5004119;28;20485;-70
2023/08/17 12:04:53;;;;;;;7.30;6.80;;;35.20;73.30;;;;;;5011107;28;20430;-70
2023/08/17 12:07:19;;;;;;;7.80;7.20;;;34.70;77.50;;;;;;4992072;28;20415;-70
2023/08/17 12:09:46;;;;;;;7.77;7.17;;;34.90;78.80;;;;;;4996671;28;20519;-70
2023/08/17 12:12:12;;;;;;;7.00;6.50;;;35.20;78.50;;;;;;4998000;28;20509;-70
2023/08/17 12:14:42;;;;;;;10.17;9.07;;;35.70;77.60;;;;;;5001258;28;20876;-70
2023/08/17 12:17:15;;;;;;;7.40;6.90;;;35.30;78.70;;;;;;5009154;28;20445;-71
2023/08/17 12:19:40;;;;;;;7.50;6.93;;;35.00;79.70;;;;;;5009404;28;20469;-70
2023/08/17 12:22:06;;;;;;;8.27;7.73;;;34.50;81.70;;;;;;5009830;28;20456;-70
2023/08/17 12:24:32;;;;;;;8.43;7.80;;;33.60;88.10;;;;;;5002974;28;20184;-70
2023/08/17 12:26:58;;;;;;;8.30;7.67;;;33.20;91.00;;;;;;4991441;28;20172;-70
2023/08/17 12:29:24;;;;;;;9.20;8.30;;;32.70;93.20;;;;;;4993369;28;20647;-69
2023/08/17 12:31:52;;;;;;;8.70;8.07;;;32.20;95.60;;;;;;5001719;28;20467;-69